Time;durP1;ratioP1;P1;durP2;ratioP2;P2;SDS_P1;SDS_P2;PMS_P1;PMS_P2;Temp;Humidity;BMP_temperature;BMP_pressure;BME280_temperature;BME280_humidity;BME280_pressure;Samples;Min_cycle;Max_cycle;Signal;HPM_P1;HPM_P2
2021/06/27 00:02:00;;;;;;;4.72;4.32;;;;;;;;;;5115149;28;20386;-87
2021/06/27 00:04:27;;;;;;;4.50;4.10;;;;;;;;;;5096926;28;20379;-87
2021/06/27 00:06:56;;;;;;;4.65;4.25;;;;;;;;;;5097208;28;20912;-86
2021/06/27 00:09:45;;;;;;;6.00;4.30;;;;;;;;;;5113802;28;20370;-87
2021/06/27 00:12:55;;;;;;;6.13;4.20;;;;;;;;;;5091859;28;20403;-86
2021/06/27 00:16:10;;;;;;;4.45;4.05;;;;;;;;;;5087966;28;20988;-86
2021/06/27 00:18:36;;;;;;;7.18;4.47;;;;;;;;;;5074848;28;20751;-89
2021/06/27 00:21:24;;;;;;;7.93;5.15;;;;;;;;;;5113702;28;20366;-87
2021/06/27 00:24:14;;;;;;;6.80;5.28;;;;;;;;;;5115344;28;20391;-86
2021/06/27 00:26:49;;;;;;;7.15;5.00;;;;;;;;;;5112660;28;20391;-85
2021/06/27 00:29:53;;;;;;;7.45;5.07;;;;;;;;;;5110522;28;20783;-87
2021/06/27 00:33:03;;;;;;;7.07;5.45;;;;;;;;;;5114634;28;20804;-86
2021/06/27 00:35:58;;;;;;;5.75;5.07;;;;;;;;;;5113718;28;20378;-86
2021/06/27 00:38:24;;;;;;;6.20;5.53;;;;;;;;;;5113005;28;20450;-86
2021/06/27 00:40:51;;;;;;;7.57;5.07;;;;;;;;;;5112103;28;20389;-87
2021/06/27 00:43:17;;;;;;;6.05;4.65;;;;;;;;;;5111216;28;20386;-87
2021/06/27 00:46:14;;;;;;;5.65;4.80;;;;;;;;;;5111847;28;20771;-87
2021/06/27 00:49:38;;;;;;;6.30;5.03;;;;;;;;;;5114297;28;20732;-87
2021/06/27 00:52:24;;;;;;;6.53;5.32;;;;;;;;;;5113020;28;20391;-86
2021/06/27 00:54:52;;;;;;;5.60;5.03;;;;;;;;;;5112128;28;20500;-86
2021/06/27 00:57:50;;;;;;;7.05;5.05;;;;;;;;;;5112889;28;20394;-86
2021/06/27 01:00:38;;;;;;;6.82;5.05;;;;;;;;;;5113265;28;20366;-88
2021/06/27 01:03:05;;;;;;;6.20;5.07;;;;;;;;;;5112192;28;20384;-87
2021/06/27 01:05:33;;;;;;;6.90;5.20;;;;;;;;;;5111113;28;20390;-87
2021/06/27 01:07:59;;;;;;;5.25;4.72;;;;;;;;;;5111761;28;20371;-86
2021/06/27 01:10:36;;;;;;;5.90;5.00;;;;;;;;;;5112126;28;20362;-87
2021/06/27 01:13:03;;;;;;;5.63;5.13;;;;;;;;;;5111798;28;20374;-86
2021/06/27 01:15:29;;;;;;;5.13;4.73;;;;;;;;;;5110203;28;20502;-86
2021/06/27 01:17:57;;;;;;;6.13;4.83;;;;;;;;;;5112144;28;20362;-88
2021/06/27 01:20:30;;;;;;;7.18;4.95;;;;;;;;;;5111717;28;20378;-87
2021/06/27 01:22:58;;;;;;;5.10;4.67;;;;;;;;;;5095903;28;20378;-87
2021/06/27 01:25:30;;;;;;;5.63;5.07;;;;;;;;;;5111746;28;20864;-87
2021/06/27 01:27:56;;;;;;;8.10;4.97;;;;;;;;;;5095384;28;20402;-87
2021/06/27 01:30:26;;;;;;;6.03;4.68;;;;;;;;;;5112015;28;20374;-86
2021/06/27 01:32:53;;;;;;;6.15;4.97;;;;;;;;;;5113527;28;20383;-85
2021/06/27 01:35:20;;;;;;;7.57;5.15;;;;;;;;;;5111527;28;20731;-87
2021/06/27 01:38:06;;;;;;;6.32;5.10;;;;;;;;;;5111364;28;20792;-86
2021/06/27 01:40:33;;;;;;;7.18;5.47;;;;;;;;;;5111883;28;20362;-87
2021/06/27 01:43:18;;;;;;;6.68;5.35;;;;;;;;;;5113012;28;20860;-87
2021/06/27 01:45:47;;;;;;;5.60;5.10;;;;;;;;;;5112398;28;20394;-87
2021/06/27 01:48:13;;;;;;;5.87;5.27;;;;;;;;;;5111364;28;20367;-86
2021/06/27 01:50:40;;;;;;;6.07;5.47;;;;;;;;;;5112603;28;20840;-85
2021/06/27 01:53:11;;;;;;;6.75;5.65;;;;;;;;;;5110537;28;20358;-86
2021/06/27 01:55:39;;;;;;;6.28;5.78;;;;;;;;;;5111751;28;20359;-87
2021/06/27 01:58:05;;;;;;;6.65;5.97;;;;;;;;;;5111627;28;20367;-86
2021/06/27 02:00:32;;;;;;;6.88;6.28;;;;;;;;;;5110911;28;20792;-84
2021/06/27 02:03:00;;;;;;;7.65;6.78;;;;;;;;;;5111421;28;20419;-86
2021/06/27 02:05:28;;;;;;;6.72;6.13;;;;;;;;;;5112700;28;20405;-85
2021/06/27 02:07:54;;;;;;;7.30;6.60;;;;;;;;;;5111281;28;20367;-86
2021/06/27 02:10:22;;;;;;;6.85;6.22;;;;;;;;;;5094156;28;20378;-85
2021/06/27 02:12:50;;;;;;;6.60;6.00;;;;;;;;;;5112381;28;20888;-86
2021/06/27 02:15:16;;;;;;;6.57;5.97;;;;;;;;;;5112120;28;20374;-86
2021/06/27 02:17:57;;;;;;;6.78;6.10;;;;;;;;;;5111467;28;20359;-84
2021/06/27 02:20:27;;;;;;;6.85;6.30;;;;;;;;;;5094070;28;20363;-84
2021/06/27 02:22:53;;;;;;;7.57;6.77;;;;;;;;;;5111295;28;20377;-85
2021/06/27 02:25:19;;;;;;;7.22;6.47;;;;;;;;;;5111633;28;20920;-86
2021/06/27 02:27:47;;;;;;;7.00;6.32;;;;;;;;;;5112121;28;20477;-87
2021/06/27 02:30:14;;;;;;;7.10;6.40;;;;;;;;;;5110283;28;20374;-85
2021/06/27 02:32:41;;;;;;;7.53;6.88;;;;;;;;;;5110419;28;20375;-84
2021/06/27 02:35:08;;;;;;;7.03;6.33;;;;;;;;;;5110525;28;20777;-85
2021/06/27 02:37:35;;;;;;;7.03;6.43;;;;;;;;;;5110260;28;20856;-86
2021/06/27 02:40:01;;;;;;;7.03;6.30;;;;;;;;;;5110048;28;20871;-85
2021/06/27 02:42:27;;;;;;;7.97;6.72;;;;;;;;;;5110172;28;20406;-86
2021/06/27 02:44:53;;;;;;;8.25;7.43;;;;;;;;;;5110375;28;20459;-85
2021/06/27 02:47:20;;;;;;;8.70;7.30;;;;;;;;;;5111463;28;20516;-84
2021/06/27 02:49:46;;;;;;;8.10;7.40;;;;;;;;;;5111290;28;20498;-85
2021/06/27 02:52:13;;;;;;;8.03;7.23;;;;;;;;;;5110273;28;20393;-85
2021/06/27 02:54:39;;;;;;;8.25;7.22;;;;;;;;;;5111366;28;20367;-83
2021/06/27 02:57:05;;;;;;;7.35;6.65;;;;;;;;;;5110626;28;20369;-86
2021/06/27 02:59:31;;;;;;;8.80;8.00;;;;;;;;;;5109780;28;20378;-85
2021/06/27 03:01:57;;;;;;;9.20;7.18;;;;;;;;;;5109978;28;20363;-84
2021/06/27 03:04:23;;;;;;;8.32;7.57;;;;;;;;;;5111321;28;20434;-86
2021/06/27 03:06:49;;;;;;;8.15;7.45;;;;;;;;;;5108846;28;20390;-85
2021/06/27 03:09:15;;;;;;;8.10;7.40;;;;;;;;;;5111617;28;20367;-84
2021/06/27 03:11:41;;;;;;;8.05;7.25;;;;;;;;;;5113199;28;20367;-86
2021/06/27 03:14:07;;;;;;;7.47;6.75;;;;;;;;;;5111581;28;20366;-83
2021/06/27 03:16:33;;;;;;;7.05;6.32;;;;;;;;;;5110414;28;20424;-84
2021/06/27 03:18:59;;;;;;;7.38;6.65;;;;;;;;;;5109566;28;20511;-87
2021/06/27 03:21:26;;;;;;;7.35;6.72;;;;;;;;;;5109910;28;20385;-85
2021/06/27 03:23:52;;;;;;;8.32;7.63;;;;;;;;;;5109787;28;20732;-84
2021/06/27 03:26:19;;;;;;;7.65;6.97;;;;;;;;;;5092875;28;20737;-85
2021/06/27 03:28:51;;;;;;;8.05;7.30;;;;;;;;;;5109395;28;20786;-86
2021/06/27 03:31:17;;;;;;;8.15;7.18;;;;;;;;;;5109333;28;20899;-84
2021/06/27 03:33:43;;;;;;;8.15;7.45;;;;;;;;;;5110975;28;20362;-86
2021/06/27 03:36:09;;;;;;;7.97;7.18;;;;;;;;;;5114943;28;20354;-84
2021/06/27 03:41:23;;;;;;;8.07;7.30;;;;;;;;;;5113978;28;20400;-86
2021/06/27 03:43:49;;;;;;;8.57;7.65;;;;;;;;;;5094219;28;20370;-84
2021/06/27 03:46:18;;;;;;;8.10;7.40;;;;;;;;;;5096512;28;20426;-84
2021/06/27 03:48:45;;;;;;;8.25;7.50;;;;;;;;;;5116381;28;20359;-85
2021/06/27 03:51:11;;;;;;;8.25;7.45;;;;;;;;;;5115446;28;20363;-87
2021/06/27 03:53:45;;;;;;;6.70;6.13;;;;;;;;;;5115077;28;20740;-83
2021/06/27 03:56:11;;;;;;;7.18;6.57;;;;;;;;;;5115411;28;20388;-83
2021/06/27 03:58:37;;;;;;;7.65;6.82;;;;;;;;;;5116009;28;20460;-83
2021/06/27 04:01:03;;;;;;;6.55;5.90;;;;;;;;;;5116508;28;20367;-83
2021/06/27 04:03:29;;;;;;;6.88;6.18;;;;;;;;;;5098309;28;20371;-82
2021/06/27 04:05:55;;;;;;;5.95;5.45;;;;;;;;;;5114564;28;20391;-86
2021/06/27 04:08:21;;;;;;;6.50;5.90;;;;;;;;;;5096379;28;20429;-83
2021/06/27 04:10:47;;;;;;;5.90;5.40;;;;;;;;;;5096567;28;20416;-86
2021/06/27 04:13:15;;;;;;;5.50;5.10;;;;;;;;;;5094005;28;20386;-83
2021/06/27 04:15:41;;;;;;;5.93;5.43;;;;;;;;;;5112578;28;20371;-84
2021/06/27 04:18:12;;;;;;;6.10;5.50;;;;;;;;;;5115807;28;20378;-83
2021/06/27 04:20:38;;;;;;;6.60;6.00;;;;;;;;;;5117860;28;20389;-86
2021/06/27 04:23:04;;;;;;;6.82;6.13;;;;;;;;;;5117247;28;20848;-85
2021/06/27 04:25:30;;;;;;;5.75;5.35;;;;;;;;;;5117686;28;20730;-84
2021/06/27 04:27:56;;;;;;;6.20;5.70;;;;;;;;;;5118278;28;20361;-86
2021/06/27 04:30:22;;;;;;;7.38;5.40;;;;;;;;;;5118166;28;20367;-83
2021/06/27 04:32:48;;;;;;;6.57;5.50;;;;;;;;;;5119439;28;20875;-85
2021/06/27 04:35:15;;;;;;;6.17;5.57;;;;;;;;;;5116492;28;20359;-84
2021/06/27 04:37:42;;;;;;;6.15;5.25;;;;;;;;;;5097850;28;20377;-85
2021/06/27 04:40:09;;;;;;;6.00;5.50;;;;;;;;;;5113599;28;20948;-86
2021/06/27 04:42:35;;;;;;;5.57;5.07;;;;;;;;;;5113293;28;20374;-86
2021/06/27 04:45:01;;;;;;;5.63;5.13;;;;;;;;;;5113473;28;20903;-86
2021/06/27 04:47:28;;;;;;;6.30;5.80;;;;;;;;;;5107252;28;20377;-87
2021/06/27 04:49:55;;;;;;;6.03;5.43;;;;;;;;;;5113997;27;20441;-86
2021/06/27 04:52:27;;;;;;;5.97;5.35;;;;;;;;;;5096519;28;20382;-86
2021/06/27 04:55:14;;;;;;;6.40;5.80;;;;;;;;;;5113476;28;20386;-86
2021/06/27 04:58:21;;;;;;;7.30;4.90;;;;;;;;;;5114229;28;20725;-86
2021/06/27 05:00:48;;;;;;;7.93;5.32;;;;;;;;;;5115760;28;20363;-86
2021/06/27 05:03:18;;;;;;;5.32;4.82;;;;;;;;;;5116056;28;20419;-86
2021/06/27 05:05:56;;;;;;;5.15;4.68;;;;;;;;;;5115527;28;20401;-87
2021/06/27 05:08:45;;;;;;;5.68;4.88;;;;;;;;;;5112461;28;20379;-87
2021/06/27 05:11:13;;;;;;;6.25;4.90;;;;;;;;;;5113314;28;20386;-87
2021/06/27 05:13:58;;;;;;;6.80;4.70;;;;;;;;;;5113517;28;20716;-86
2021/06/27 05:17:01;;;;;;;6.38;4.68;;;;;;;;;;5115532;28;20370;-89
2021/06/27 05:19:56;;;;;;;5.20;4.40;;;;;;;;;;5115985;28;20401;-85
2021/06/27 05:22:22;;;;;;;5.18;4.60;;;;;;;;;;5113423;28;20392;-88
2021/06/27 05:25:20;;;;;;;9.00;4.90;;;;;;;;;;5113882;28;20371;-88
2021/06/27 05:28:12;;;;;;;4.90;4.50;;;;;;;;;;5016162;28;20481;-88
2021/06/27 05:31:01;;;;;;;6.45;4.50;;;;;;;;;;5035876;28;20391;-88
2021/06/27 05:33:48;;;;;;;4.95;4.45;;;;;;;;;;5052439;28;20474;-86
2021/06/27 05:36:37;;;;;;;5.07;4.57;;;;;;;;;;5022124;28;20370;-86
2021/06/27 05:39:24;;;;;;;6.97;4.32;;;;;;;;;;5096308;28;20387;-88
2021/06/27 05:42:29;;;;;;;5.40;4.03;;;;;;;;;;5112678;28;20367;-87
2021/06/27 05:45:20;;;;;;;4.80;4.10;;;;;;;;;;5093948;28;20387;-87
2021/06/27 05:53:40;;;;;;;5.60;4.10;;;;;;;;;;5115201;28;20346;-89
2021/06/27 05:56:28;;;;;;;4.78;4.07;;;;;;;;;;5095551;28;20418;-88
2021/06/27 05:59:26;;;;;;;5.65;3.90;;;;;;;;;;5111106;28;20375;-88
2021/06/27 06:02:23;;;;;;;4.20;3.80;;;;;;;;;;5095295;28;20367;-89
2021/06/27 06:05:32;;;;;;;6.78;4.15;;;;;;;;;;5113473;28;20469;-89
2021/06/27 06:08:30;;;;;;;6.90;4.07;;;;;;;;;;5113804;28;20354;-89
2021/06/27 06:11:26;;;;;;;8.45;4.22;;;;;;;;;;5094241;28;20716;-88
2021/06/27 06:14:01;;;;;;;10.68;4.10;;;;;;;;;;5095169;28;20363;-88
2021/06/27 06:16:58;;;;;;;5.83;3.57;;;;;;;;;;5113831;28;20729;-88
2021/06/27 06:20:05;;;;;;;3.20;2.90;;;;;;;;;;5108484;28;20367;-87
2021/06/27 06:22:32;;;;;;;3.58;3.28;;;;;;;;;;5095796;28;20358;-89
2021/06/27 06:25:18;;;;;;;4.60;3.08;;;;;;;;;;5095444;28;20370;-88
2021/06/27 06:28:29;;;;;;;3.78;3.33;;;;;;;;;;5092261;28;20359;-85
2021/06/27 06:31:01;;;;;;;4.90;3.25;;;;;;;;;;5094205;28;20374;-88
2021/06/27 06:33:27;;;;;;;3.20;2.90;;;;;;;;;;5096855;28;20448;-87
2021/06/27 06:35:56;;;;;;;3.97;2.95;;;;;;;;;;5096538;28;20387;-88
2021/06/27 06:41:39;;;;;;;4.75;3.00;;;;;;;;;;5072171;28;20396;-89
2021/06/27 06:44:05;;;;;;;3.23;2.93;;;;;;;;;;5093046;28;20390;-89
2021/06/27 06:47:06;;;;;;;3.38;2.78;;;;;;;;;;5094440;28;20387;-88
2021/06/27 06:49:56;;;;;;;4.05;2.90;;;;;;;;;;5115968;28;20413;-87
2021/06/27 06:52:46;;;;;;;5.53;3.05;;;;;;;;;;5115914;28;20379;-86
2021/06/27 06:55:35;;;;;;;4.13;2.80;;;;;;;;;;5102302;28;20367;-89
2021/06/27 07:01:31;;;;;;;3.70;2.92;;;;;;;;;;5114117;28;20346;-85
2021/06/27 07:10:23;;;;;;;21.85;4.25;;;;;;;;;;5113622;28;20347;-89
2021/06/27 07:13:28;;;;;;;5.00;2.80;;;;;;;;;;5072689;28;20358;-89
2021/06/27 07:19:55;;;;;;;3.17;2.70;;;;;;;;;;5042603;28;20462;-89
2021/06/27 07:22:41;;;;;;;4.82;3.10;;;;;;;;;;5088463;28;20383;-89
2021/06/27 07:25:08;;;;;;;3.03;2.80;;;;;;;;;;5094888;28;20391;-87
2021/06/27 07:28:01;;;;;;;5.90;2.88;;;;;;;;;;5060906;28;20371;-87
2021/06/27 07:30:49;;;;;;;3.83;3.05;;;;;;;;;;5076300;28;20904;-87
2021/06/27 07:34:00;;;;;;;3.13;2.83;;;;;;;;;;5106420;28;20371;-88
2021/06/27 07:36:28;;;;;;;4.78;3.25;;;;;;;;;;5111614;28;20366;-87
2021/06/27 07:39:32;;;;;;;4.00;3.28;;;;;;;;;;5094689;28;20405;-87
2021/06/27 07:42:19;;;;;;;5.25;3.17;;;;;;;;;;5070782;28;20366;-89
2021/06/27 07:44:45;;;;;;;4.30;3.17;;;;;;;;;;5110834;28;20359;-86
2021/06/27 07:47:26;;;;;;;3.40;3.10;;;;;;;;;;5111502;28;20394;-89
2021/06/27 07:50:28;;;;;;;3.55;3.25;;;;;;;;;;5111091;28;20370;-91
2021/06/27 07:59:59;;;;;;;4.30;2.88;;;;;;;;;;4995626;28;20348;-89
2021/06/27 08:06:11;;;;;;;5.90;3.22;;;;;;;;;;4955255;28;20488;-87
2021/06/27 08:11:57;;;;;;;5.10;3.30;;;;;;;;;;4995162;28;20383;-89
2021/06/27 08:15:04;;;;;;;4.72;3.08;;;;;;;;;;5030963;28;20373;-89
2021/06/27 08:18:01;;;;;;;3.67;3.17;;;;;;;;;;5044893;28;20434;-88
2021/06/27 08:27:12;;;;;;;3.50;3.15;;;;;;;;;;4993907;28;20444;-87
2021/06/27 08:30:04;;;;;;;4.38;3.10;;;;;;;;;;4998079;28;20415;-86
2021/06/27 08:36:31;;;;;;;4.35;3.03;;;;;;;;;;5052942;28;20498;-88
2021/06/27 08:39:18;;;;;;;5.22;3.05;;;;;;;;;;5036704;28;20379;-90
2021/06/27 08:41:55;;;;;;;3.50;3.03;;;;;;;;;;5043127;28;20890;-88
2021/06/27 08:50:25;;;;;;;3.60;3.30;;;;;;;;;;5073176;28;20934;-88
2021/06/27 08:52:52;;;;;;;4.07;2.90;;;;;;;;;;5116106;27;20361;-89
2021/06/27 08:59:16;;;;;;;4.25;3.05;;;;;;;;;;5118349;27;20780;-89
2021/06/27 09:04:55;;;;;;;4.13;3.40;;;;;;;;;;5097106;27;20410;-90
2021/06/27 09:07:30;;;;;;;4.05;3.15;;;;;;;;;;5115961;27;21647;-90
2021/06/27 09:10:23;;;;;;;3.88;3.20;;;;;;;;;;5114493;27;20874;-86
2021/06/27 09:13:01;;;;;;;4.10;3.03;;;;;;;;;;5016458;28;20860;-90
2021/06/27 09:15:47;;;;;;;4.90;3.35;;;;;;;;;;5110143;27;20862;-85
2021/06/27 09:18:34;;;;;;;3.67;3.38;;;;;;;;;;5134295;27;20373;-86
2021/06/27 09:21:31;;;;;;;3.67;3.38;;;;;;;;;;5095821;28;20370;-90
2021/06/27 09:24:26;;;;;;;4.72;3.28;;;;;;;;;;5110110;28;20373;-87
2021/06/27 09:26:53;;;;;;;4.13;3.30;;;;;;;;;;5114875;28;20386;-85
2021/06/27 09:29:48;;;;;;;3.53;3.23;;;;;;;;;;5093791;28;20504;-89
2021/06/27 09:35:56;;;;;;;3.67;3.15;;;;;;;;;;5115004;28;20350;-85
2021/06/27 09:38:51;;;;;;;3.25;2.83;;;;;;;;;;5015183;28;20401;-88
2021/06/27 09:41:36;;;;;;;4.32;3.33;;;;;;;;;;5123982;27;20376;-86
2021/06/27 09:44:22;;;;;;;4.80;3.10;;;;;;;;;;5134080;27;20358;-88
2021/06/27 09:47:09;;;;;;;3.47;3.10;;;;;;;;;;5132552;27;20792;-87
2021/06/27 09:50:10;;;;;;;3.67;2.77;;;;;;;;;;5133757;27;20414;-90
2021/06/27 09:52:42;;;;;;;3.70;3.05;;;;;;;;;;5132117;27;20372;-86
2021/06/27 09:55:09;;;;;;;3.25;2.95;;;;;;;;;;5133655;27;20828;-87
2021/06/27 09:57:39;;;;;;;4.03;2.57;;;;;;;;;;5133007;27;20362;-87
2021/06/27 10:00:25;;;;;;;3.28;2.60;;;;;;;;;;5131354;27;20445;-88
2021/06/27 10:03:01;;;;;;;3.47;2.80;;;;;;;;;;5121447;27;20357;-88
2021/06/27 10:05:27;;;;;;;2.78;2.53;;;;;;;;;;5130614;27;20392;-88
2021/06/27 10:07:53;;;;;;;3.55;2.63;;;;;;;;;;5132075;27;20444;-88
2021/06/27 10:10:45;;;;;;;3.38;2.60;;;;;;;;;;5133482;27;20353;-88
2021/06/27 10:13:31;;;;;;;3.75;2.42;;;;;;;;;;5051027;28;20384;-85
2021/06/27 10:16:22;;;;;;;3.45;2.67;;;;;;;;;;5121326;27;20923;-86
2021/06/27 10:18:48;;;;;;;3.55;2.45;;;;;;;;;;5129632;27;20726;-87
2021/06/27 10:21:29;;;;;;;3.40;2.60;;;;;;;;;;5131126;27;20444;-87
2021/06/27 10:24:23;;;;;;;2.78;2.40;;;;;;;;;;5133291;27;20464;-88
2021/06/27 10:30:27;;;;;;;3.03;2.38;;;;;;;;;;5133936;27;20388;-90
2021/06/27 10:33:01;;;;;;;3.85;2.53;;;;;;;;;;5132971;27;20401;-86
2021/06/27 10:35:33;;;;;;;2.80;2.38;;;;;;;;;;5128427;27;20373;-88
2021/06/27 10:38:14;;;;;;;2.50;2.30;;;;;;;;;;5127910;27;20548;-88
2021/06/27 10:41:11;;;;;;;3.35;2.30;;;;;;;;;;5133323;27;20377;-88
2021/06/27 10:44:01;;;;;;;2.42;2.22;;;;;;;;;;5129076;27;20464;-85
2021/06/27 10:46:40;;;;;;;2.38;2.17;;;;;;;;;;5129418;27;20412;-87
2021/06/27 10:49:33;;;;;;;2.20;2.00;;;;;;;;;;5125308;27;20366;-86
2021/06/27 10:51:59;;;;;;;3.25;2.60;;;;;;;;;;5117094;27;20377;-84
2021/06/27 10:55:11;;;;;;;3.05;2.47;;;;;;;;;;5131312;27;20477;-88
2021/06/27 11:01:11;;;;;;;3.47;2.60;;;;;;;;;;5029391;28;20393;-88
2021/06/27 11:03:46;;;;;;;2.95;2.47;;;;;;;;;;5009678;28;20773;-86
2021/06/27 11:06:25;;;;;;;3.78;2.72;;;;;;;;;;5012429;28;20875;-86
2021/06/27 11:08:55;;;;;;;4.57;2.80;;;;;;;;;;5013176;28;20373;-87
2021/06/27 11:11:44;;;;;;;3.78;2.70;;;;;;;;;;5092801;28;20394;-89
2021/06/27 11:14:52;;;;;;;2.93;2.37;;;;;;;;;;5091434;28;20413;-88
2021/06/27 11:17:55;;;;;;;3.15;2.80;;;;;;;;;;5098643;28;20839;-85
2021/06/27 11:20:22;;;;;;;4.85;3.00;;;;;;;;;;5087815;28;20408;-87
2021/06/27 11:22:51;;;;;;;3.00;2.80;;;;;;;;;;5088606;28;20367;-88
2021/06/27 11:25:51;;;;;;;3.30;3.00;;;;;;;;;;5091827;28;20402;-89
2021/06/27 11:28:40;;;;;;;3.67;2.80;;;;;;;;;;5074226;28;20453;-87
2021/06/27 11:31:30;;;;;;;3.28;2.65;;;;;;;;;;5056263;28;20369;-89
2021/06/27 11:34:15;;;;;;;2.65;2.45;;;;;;;;;;5057106;28;20768;-87
2021/06/27 11:45:49;;;;;;;4.03;2.83;;;;;;;;;;5138362;27;20437;-87
2021/06/27 11:48:16;;;;;;;3.35;3.05;;;;;;;;;;5119735;27;20369;-88
2021/06/27 11:50:47;;;;;;;5.28;2.88;;;;;;;;;;5133398;27;20443;-89
2021/06/27 11:53:13;;;;;;;4.32;3.08;;;;;;;;;;5132352;27;20850;-89
2021/06/27 11:59:12;;;;;;;3.28;2.80;;;;;;;;;;5135545;27;20868;-86
2021/06/27 12:11:11;;;;;;;3.97;3.23;;;;;;;;;;5136026;27;20349;-90
2021/06/27 12:14:18;;;;;;;4.72;3.03;;;;;;;;;;5112791;28;20417;-89
2021/06/27 12:17:19;;;;;;;3.43;2.83;;;;;;;;;;5087925;28;20470;-89
2021/06/27 12:20:12;;;;;;;3.08;2.78;;;;;;;;;;5114684;28;20413;-86
2021/06/27 12:23:09;;;;;;;2.83;2.63;;;;;;;;;;5081080;27;20374;-89
2021/06/27 12:26:15;;;;;;;11.63;4.10;;;;;;;;;;5136706;27;20377;-88
2021/06/27 12:32:45;;;;;;;3.58;2.90;;;;;;;;;;5137792;27;20378;-86
2021/06/27 12:35:51;;;;;;;4.00;2.83;;;;;;;;;;5053586;28;20749;-88
2021/06/27 12:38:17;;;;;;;3.40;2.92;;;;;;;;;;5035432;28;20387;-86
2021/06/27 12:41:10;;;;;;;3.83;3.23;;;;;;;;;;5036121;28;20896;-87
2021/06/27 12:44:03;;;;;;;3.77;3.30;;;;;;;;;;5039031;28;20376;-88
2021/06/27 12:46:48;;;;;;;3.22;2.92;;;;;;;;;;5082731;28;20399;-90
2021/06/27 12:49:36;;;;;;;3.67;3.10;;;;;;;;;;5108519;28;20414;-87
2021/06/27 12:52:07;;;;;;;3.85;3.00;;;;;;;;;;5107549;28;20366;-85
2021/06/27 12:54:34;;;;;;;3.30;3.00;;;;;;;;;;5077209;28;20374;-91
2021/06/27 13:03:46;;;;;;;3.22;2.92;;;;;;;;;;5112073;28;20378;-87
2021/06/27 13:06:31;;;;;;;3.00;2.70;;;;;;;;;;5091387;28;20388;-86
2021/06/27 13:09:23;;;;;;;3.85;3.13;;;;;;;;;;5074560;28;20372;-88
2021/06/27 13:12:37;;;;;;;3.75;3.00;;;;;;;;;;5072885;28;20404;-89
2021/06/27 13:15:45;;;;;;;5.67;3.37;;;;;;;;;;4992539;28;20384;-86
2021/06/27 13:19:14;;;;;;;4.70;2.80;;;;;;;;;;4990147;28;20395;-89
2021/06/27 13:28:01;;;;;;;3.28;2.97;;;;;;;;;;4990345;28;20903;-88
2021/06/27 13:30:27;;;;;;;4.22;3.10;;;;;;;;;;5032117;28;20400;-88
2021/06/27 13:36:38;;;;;;;3.50;3.20;;;;;;;;;;5133357;27;20364;-88
2021/06/27 13:42:53;;;;;;;3.00;2.75;;;;;;;;;;5030739;28;20894;-90
2021/06/27 13:45:37;;;;;;;4.10;2.80;;;;;;;;;;5038067;28;20436;-89
2021/06/27 13:57:48;;;;;;;3.38;2.95;;;;;;;;;;5070072;28;20416;-87
2021/06/27 14:00:41;;;;;;;4.55;2.55;;;;;;;;;;5052303;28;20401;-86
2021/06/27 14:16:12;;;;;;;2.85;2.40;;;;;;;;;;5124941;27;20586;-86
2021/06/27 14:18:44;;;;;;;3.13;2.83;;;;;;;;;;5115424;27;20365;-88
2021/06/27 14:21:14;;;;;;;6.25;2.75;;;;;;;;;;5120807;27;20417;-86
2021/06/27 14:27:19;;;;;;;5.13;2.83;;;;;;;;;;5125432;27;20395;-88
2021/06/27 14:29:45;;;;;;;3.00;2.70;;;;;;;;;;5112344;27;20459;-91
2021/06/27 14:32:33;;;;;;;2.97;2.67;;;;;;;;;;5114573;27;20492;-87
2021/06/27 14:35:05;;;;;;;3.13;2.83;;;;;;;;;;5130859;27;20393;-84
2021/06/27 14:38:10;;;;;;;2.97;2.77;;;;;;;;;;5111425;27;20388;-88
2021/06/27 14:44:49;;;;;;;2.83;2.63;;;;;;;;;;5077167;28;20884;-88
2021/06/27 14:47:56;;;;;;;4.57;2.70;;;;;;;;;;5070385;28;20477;-87
2021/06/27 14:50:45;;;;;;;4.93;2.70;;;;;;;;;;5063897;28;20882;-87
2021/06/27 15:02:18;;;;;;;42.78;6.25;;;;;;;;;;5050969;28;20351;-86
2021/06/27 15:04:44;;;;;;;5.05;2.88;;;;;;;;;;5035001;28;20396;-86
2021/06/27 15:07:11;;;;;;;3.50;2.50;;;;;;;;;;5049494;28;20416;-90
2021/06/27 15:09:56;;;;;;;12.20;3.38;;;;;;;;;;5131024;27;20396;-86
2021/06/27 15:12:25;;;;;;;4.13;2.65;;;;;;;;;;5131984;27;20422;-88
2021/06/27 15:14:51;;;;;;;7.72;2.75;;;;;;;;;;5129894;27;20365;-86
2021/06/27 15:18:05;;;;;;;10.95;9.48;;;;;;;;;;5131666;27;20413;-86
2021/06/27 15:20:53;;;;;;;6.80;2.88;;;;;;;;;;5068525;28;20481;-89
2021/06/27 15:23:19;;;;;;;5.43;2.60;;;;;;;;;;5080451;28;20361;-88
2021/06/27 15:25:45;;;;;;;4.35;2.40;;;;;;;;;;5130753;28;20388;-88
2021/06/27 15:28:51;;;;;;;98.45;12.52;;;;;;;;;;5130059;28;20368;-87
2021/06/27 15:31:35;;;;;;;3.78;2.67;;;;;;;;;;5089694;28;20389;-88
2021/06/27 15:34:25;;;;;;;3.22;2.92;;;;;;;;;;5089519;28;20438;-87
2021/06/27 15:37:01;;;;;;;3.63;2.85;;;;;;;;;;5089728;28;20754;-88
2021/06/27 15:39:49;;;;;;;2.60;2.40;;;;;;;;;;5070187;28;20376;-87
2021/06/27 15:42:30;;;;;;;3.90;2.38;;;;;;;;;;5089620;28;20365;-86
2021/06/27 15:45:04;;;;;;;2.65;2.45;;;;;;;;;;5073270;28;20368;-89
2021/06/27 15:47:33;;;;;;;2.88;2.60;;;;;;;;;;5061123;28;20407;-88
2021/06/27 15:50:19;;;;;;;2.83;2.63;;;;;;;;;;5112454;28;20498;-86
2021/06/27 15:59:24;;;;;;;2.72;2.50;;;;;;;;;;5055974;28;20982;-87
2021/06/27 16:02:10;;;;;;;2.80;2.30;;;;;;;;;;5031533;28;20468;-89
2021/06/27 16:04:51;;;;;;;3.05;2.75;;;;;;;;;;5132355;28;20373;-88
2021/06/27 16:20:15;;;;;;;2.97;2.45;;;;;;;;;;5035226;28;20917;-88
2021/06/27 16:22:41;;;;;;;2.50;2.30;;;;;;;;;;5014472;28;20871;-85
2021/06/27 16:25:09;;;;;;;3.70;2.17;;;;;;;;;;5050862;28;20366;-88
2021/06/27 16:28:20;;;;;;;;;;;;;;;;;;;;;
2021/06/27 16:31:13;;;;;;;2.88;2.58;;;;;;;;;;5080505;28;20399;-90
2021/06/27 16:33:54;;;;;;;;;;;;;;;;;;;;;
2021/06/27 16:39:46;;;;;;;3.85;2.55;;;;;;;;;;5075193;28;20389;-86
2021/06/27 16:42:53;;;;;;;3.03;2.75;;;;;;;;;;5032962;28;20370;-89
2021/06/27 16:45:48;;;;;;;4.22;3.03;;;;;;;;;;5054409;28;20370;-88
2021/06/27 16:48:53;;;;;;;;;;;;;;;;;;;;;
2021/06/27 16:51:19;;;;;;;4.00;2.50;;;;;;;;;;5115220;27;20380;-88
2021/06/27 16:53:48;;;;;;;2.85;2.30;;;;;;;;;;5133753;27;20362;-86
2021/06/27 16:59:40;;;;;;;2.60;1.85;;;;;;;;;;5136446;27;20344;-89
2021/06/27 17:02:35;;;;;;;2.90;2.20;;;;;;;;;;5133612;27;20570;-90
2021/06/27 17:08:05;;;;;;;3.00;2.05;;;;;;;;;;5135690;27;20780;-88
2021/06/27 17:10:40;;;;;;;2.65;2.20;;;;;;;;;;5133486;27;20365;-89
2021/06/27 17:13:43;;;;;;;3.08;2.33;;;;;;;;;;5136010;27;20364;-88
2021/06/27 17:16:10;;;;;;;2.20;2.00;;;;;;;;;;5132714;27;20385;-92
2021/06/27 17:21:44;;;;;;;2.78;2.00;;;;;;;;;;5136116;27;20845;-88
2021/06/27 17:25:03;;;;;;;2.58;1.98;;;;;;;;;;5106656;27;20395;-90
2021/06/27 17:30:56;;;;;;;3.28;2.00;;;;;;;;;;5135960;27;20337;-89
2021/06/27 17:34:06;;;;;;;2.30;2.03;;;;;;;;;;5043787;28;20379;-90
2021/06/27 17:37:02;;;;;;;2.40;2.20;;;;;;;;;;5015932;28;20370;-88
2021/06/27 17:39:47;;;;;;;3.60;2.10;;;;;;;;;;4918396;29;20486;-87
2021/06/27 17:45:16;;;;;;;2.60;2.35;;;;;;;;;;5001561;28;20414;-87
2021/06/27 17:54:20;;;;;;;4.25;2.53;;;;;;;;;;5013763;28;20961;-89
2021/06/27 17:57:32;;;;;;;6.75;2.70;;;;;;;;;;4993374;28;20381;-88
2021/06/27 17:59:59;;;;;;;3.45;2.63;;;;;;;;;;4963231;28;20385;-86
2021/06/27 18:02:58;;;;;;;2.72;2.50;;;;;;;;;;4976769;28;20389;-89
2021/06/27 18:06:01;;;;;;;2.60;2.40;;;;;;;;;;4972305;28;20389;-90
2021/06/27 18:08:27;;;;;;;3.30;2.37;;;;;;;;;;4975127;28;20455;-90
2021/06/27 18:11:03;;;;;;;4.13;2.40;;;;;;;;;;5093668;27;20383;-90
2021/06/27 18:35:57;;;;;;;14.03;3.20;;;;;;;;;;4975887;28;20443;-90
2021/06/27 18:38:45;;;;;;;3.22;2.58;;;;;;;;;;5016776;28;20373;-90
2021/06/27 18:41:43;;;;;;;75.22;9.18;;;;;;;;;;5012284;28;20441;-87
2021/06/27 18:44:15;;;;;;;3.78;2.60;;;;;;;;;;4977094;28;20377;-88
2021/06/27 18:50:03;;;;;;;3.30;2.40;;;;;;;;;;5050425;28;20454;-91
2021/06/27 18:53:11;;;;;;;5.20;2.47;;;;;;;;;;5010497;28;20375;-89
2021/06/27 18:56:02;;;;;;;5.28;2.47;;;;;;;;;;5015627;28;20925;-88
2021/06/27 18:58:29;;;;;;;3.03;2.72;;;;;;;;;;5052949;28;20919;-89
2021/06/27 19:00:55;;;;;;;4.38;2.30;;;;;;;;;;5106412;27;20938;-89
2021/06/27 19:03:34;;;;;;;7.00;2.67;;;;;;;;;;5095104;28;20381;-89
2021/06/27 19:06:20;;;;;;;77.40;11.70;;;;;;;;;;5132973;27;20403;-89
2021/06/27 19:08:46;;;;;;;71.20;11.20;;;;;;;;;;5113957;27;20380;-87
2021/06/27 19:11:14;;;;;;;140.95;16.63;;;;;;;;;;5137529;27;20349;-88
2021/06/27 19:13:40;;;;;;;57.00;8.13;;;;;;;;;;5116265;27;20381;-87
2021/06/27 19:16:07;;;;;;;32.88;6.05;;;;;;;;;;5115724;27;20377;-88
2021/06/27 19:18:33;;;;;;;18.33;4.18;;;;;;;;;;5118565;27;20373;-87
2021/06/27 19:21:01;;;;;;;14.43;4.72;;;;;;;;;;5117416;28;20417;-87
2021/06/27 19:23:31;;;;;;;14.18;7.15;;;;;;;;;;5099543;28;20361;-87
2021/06/27 19:26:01;;;;;;;10.80;6.30;;;;;;;;;;5118557;28;20392;-87
2021/06/27 19:28:28;;;;;;;10.32;5.15;;;;;;;;;;5116757;28;20861;-88
2021/06/27 19:30:54;;;;;;;36.83;8.50;;;;;;;;;;5134427;28;20381;-89
2021/06/27 19:33:22;;;;;;;109.97;15.50;;;;;;;;;;5114992;28;20372;-87
2021/06/27 19:35:48;;;;;;;42.95;8.77;;;;;;;;;;5106050;28;20378;-87
2021/06/27 19:38:14;;;;;;;33.75;7.32;;;;;;;;;;5108666;28;20444;-88
2021/06/27 19:41:03;;;;;;;9.30;4.90;;;;;;;;;;5114852;28;20882;-88
2021/06/27 19:43:30;;;;;;;12.75;4.93;;;;;;;;;;5132342;27;20385;-88
2021/06/27 19:45:56;;;;;;;13.57;5.43;;;;;;;;;;5115922;28;20468;-88